aviador You're here:

KLBX Decoded Metar

ANGLETON in TX, USA
Report Time2017-06-25 05:53:00
UTC Time2017-06-25 06:52:29
Flight Rules vfr VFR
Wind010° at 04 kt
W.Decomp.*RWY 35: 3.9 kt HW 1.0 kt RCW
W.Rank010° ranks 6
Current wind is below 010° avg. (7.0)
Visibility9999 m
Phenomena:N/A
Clouds:Few 036 Hf
Expected CloudBase > 400 ft AGL from Temp-Dew spread
CeilingNone
Temp26°C (ISA +11)
Dew Point25°C (94% RH)
QNH1019 hPa
Density Alt1,509 ft
Elevation20 ft
Report Wrong Elevation
Raw Report
METAR KLBX 250553Z AUTO 01004KT 10SM FEW036 26/25 A3009 RMK AO2 LTG
DSNT W SLP190 60001 T02560250 10294 20256 403170256 51017=

Extra information for KLBX:More info

Metar Taf Metar & Taf Last 4 Metars F.Rules Stats Wind Profile Meteogram Temp Stats Airport Information Weather charts Add Link Nearby VenuesMetar ALERT Operation Metar Decoded Social comments

AIRNAV info for KLBX